sensor_id;sensor_type;location;lat;lon;timestamp;pressure;altitude;pressure_sealevel;temperature;humidity
72157;BME280;60035;52.122;5.406;2022-08-01T00:00:04;101845.41;;;18.92;87.52
72157;BME280;60035;52.122;5.406;2022-08-01T00:02:36;101849.75;;;18.91;87.29
72157;BME280;60035;52.122;5.406;2022-08-01T00:05:06;101853.03;;;18.95;88.01
72157;BME280;60035;52.122;5.406;2022-08-01T00:07:33;101857.38;;;18.94;87.86
72157;BME280;60035;52.122;5.406;2022-08-01T00:10:02;101858.22;;;18.95;87.75
72157;BME280;60035;52.122;5.406;2022-08-01T00:12:29;101853.94;;;18.94;88.04
72157;BME280;60035;52.122;5.406;2022-08-01T00:14:55;101863.34;;;18.96;87.84
72157;BME280;60035;52.122;5.406;2022-08-01T00:17:22;101858.22;;;18.95;87.88
72157;BME280;60035;52.122;5.406;2022-08-01T00:19:48;101848.00;;;18.92;87.90
72157;BME280;60035;52.122;5.406;2022-08-01T00:22:15;101857.53;;;18.91;88.17
72157;BME280;60035;52.122;5.406;2022-08-01T00:24:41;101855.00;;;18.90;88.17
72157;BME280;60035;52.122;5.406;2022-08-01T00:27:08;101856.78;;;18.88;88.23
72157;BME280;60035;52.122;5.406;2022-08-01T00:29:35;101857.59;;;18.90;88.45
72157;BME280;60035;52.122;5.406;2022-08-01T00:32:21;101861.72;;;18.94;88.27
72157;BME280;60035;52.122;5.406;2022-08-01T00:34:49;101863.41;;;18.95;87.78
72157;BME280;60035;52.122;5.406;2022-08-01T00:37:16;101863.63;;;18.90;88.46
72157;BME280;60035;52.122;5.406;2022-08-01T00:39:43;101863.72;;;18.89;88.35
72157;BME280;60035;52.122;5.406;2022-08-01T00:42:11;101852.47;;;18.88;88.83
72157;BME280;60035;52.122;5.406;2022-08-01T00:44:39;101859.56;;;18.85;89.09
72157;BME280;60035;52.122;5.406;2022-08-01T00:47:06;101856.03;;;18.86;89.02
72157;BME280;60035;52.122;5.406;2022-08-01T00:49:33;101859.56;;;18.85;88.92
72157;BME280;60035;52.122;5.406;2022-08-01T00:52:00;101851.84;;;18.83;88.87
72157;BME280;60035;52.122;5.406;2022-08-01T00:54:29;101852.84;;;18.80;88.97
72157;BME280;60035;52.122;5.406;2022-08-01T00:56:56;101854.81;;;18.75;88.84
72157;BME280;60035;52.122;5.406;2022-08-01T00:59:24;101861.59;;;18.78;89.05
72157;BME280;60035;52.122;5.406;2022-08-01T01:01:52;101870.38;;;18.75;89.50
72157;BME280;60035;52.122;5.406;2022-08-01T01:04:19;101867.22;;;18.69;89.75
72157;BME280;60035;52.122;5.406;2022-08-01T01:10:00;101867.63;;;18.78;89.62
72157;BME280;60035;52.122;5.406;2022-08-01T01:15:21;101867.78;;;18.75;89.40
72157;BME280;60035;52.122;5.406;2022-08-01T01:17:53;101865.41;;;18.71;89.38
72157;BME280;60035;52.122;5.406;2022-08-01T01:20:25;101863.66;;;18.71;89.44
72157;BME280;60035;52.122;5.406;2022-08-01T01:28:34;101862.94;;;18.68;90.11
72157;BME280;60035;52.122;5.406;2022-08-01T01:31:02;101865.34;;;18.72;90.26
72157;BME280;60035;52.122;5.406;2022-08-01T01:33:32;101852.28;;;18.74;90.38
72157;BME280;60035;52.122;5.406;2022-08-01T01:36:03;101854.09;;;18.72;90.10
72157;BME280;60035;52.122;5.406;2022-08-01T01:38:40;101855.78;;;18.73;90.31
72157;BME280;60035;52.122;5.406;2022-08-01T01:41:09;101853.13;;;18.74;90.43
72157;BME280;60035;52.122;5.406;2022-08-01T01:43:37;101849.00;;;18.70;90.53
72157;BME280;60035;52.122;5.406;2022-08-01T01:46:07;101859.59;;;18.65;90.38
72157;BME280;60035;52.122;5.406;2022-08-01T01:48:36;101859.44;;;18.69;90.47
72157;BME280;60035;52.122;5.406;2022-08-01T01:51:04;101856.78;;;18.70;90.47
72157;BME280;60035;52.122;5.406;2022-08-01T01:53:33;101861.22;;;18.68;90.13
72157;BME280;60035;52.122;5.406;2022-08-01T01:56:02;101867.22;;;18.69;90.19
72157;BME280;60035;52.122;5.406;2022-08-01T01:58:29;101866.44;;;18.67;90.33
72157;BME280;60035;52.122;5.406;2022-08-01T02:00:58;101863.19;;;18.63;90.38
72157;BME280;60035;52.122;5.406;2022-08-01T02:03:30;101860.66;;;18.61;90.50
72157;BME280;60035;52.122;5.406;2022-08-01T02:05:58;101860.66;;;18.61;90.78
72157;BME280;60035;52.122;5.406;2022-08-01T02:08:26;101868.28;;;18.64;90.71
72157;BME280;60035;52.122;5.406;2022-08-01T02:10:57;101864.00;;;18.63;90.62
72157;BME280;60035;52.122;5.406;2022-08-01T02:13:45;101864.91;;;18.62;90.76
72157;BME280;60035;52.122;5.406;2022-08-01T02:16:13;101866.53;;;18.65;90.86
72157;BME280;60035;52.122;5.406;2022-08-01T02:18:41;101864.84;;;18.64;90.83
72157;BME280;60035;52.122;5.406;2022-08-01T02:21:11;101861.34;;;18.65;90.80
72157;BME280;60035;52.122;5.406;2022-08-01T02:23:38;101865.53;;;18.68;90.59
72157;BME280;60035;52.122;5.406;2022-08-01T02:26:09;101862.25;;;18.64;90.64
72157;BME280;60035;52.122;5.406;2022-08-01T02:29:02;101867.44;;;18.64;90.75
72157;BME280;60035;52.122;5.406;2022-08-01T02:31:32;101867.66;;;18.59;90.67
72157;BME280;60035;52.122;5.406;2022-08-01T02:34:06;101867.66;;;18.59;90.80
72157;BME280;60035;52.122;5.406;2022-08-01T02:36:36;101863.31;;;18.60;90.86
72157;BME280;60035;52.122;5.406;2022-08-01T02:39:07;101862.31;;;18.62;90.71
72157;BME280;60035;52.122;5.406;2022-08-01T02:41:47;101868.44;;;18.61;90.50
72157;BME280;60035;52.122;5.406;2022-08-01T02:44:24;101877.81;;;18.64;90.88
72157;BME280;60035;52.122;5.406;2022-08-01T02:47:01;101870.03;;;18.64;90.65
72157;BME280;60035;52.122;5.406;2022-08-01T02:49:34;101870.19;;;18.61;90.79
72157;BME280;60035;52.122;5.406;2022-08-01T02:52:05;101872.84;;;18.59;90.76
72157;BME280;60035;52.122;5.406;2022-08-01T02:54:34;101875.38;;;18.61;90.60
72157;BME280;60035;52.122;5.406;2022-08-01T02:57:03;101876.22;;;18.61;90.62
72157;BME280;60035;52.122;5.406;2022-08-01T02:59:33;101869.44;;;18.59;90.53
72157;BME280;60035;52.122;5.406;2022-08-01T03:02:04;101872.84;;;18.59;90.41
72157;BME280;60035;52.122;5.406;2022-08-01T03:04:35;101873.69;;;18.60;90.38
72157;BME280;60035;52.122;5.406;2022-08-01T03:07:04;101871.94;;;18.60;90.29
72157;BME280;60035;52.122;5.406;2022-08-01T03:09:37;101859.09;;;18.57;90.46
72157;BME280;60035;52.122;5.406;2022-08-01T03:12:13;101857.44;;;18.56;90.57
72157;BME280;60035;52.122;5.406;2022-08-01T03:14:42;101856.59;;;18.56;90.54
72157;BME280;60035;52.122;5.406;2022-08-01T03:17:09;101859.25;;;18.54;90.61
72157;BME280;60035;52.122;5.406;2022-08-01T03:19:39;101862.69;;;18.55;90.60
72157;BME280;60035;52.122;5.406;2022-08-01T03:22:08;101862.69;;;18.55;90.66
72157;BME280;60035;52.122;5.406;2022-08-01T03:24:38;101862.00;;;18.51;90.50
72157;BME280;60035;52.122;5.406;2022-08-01T03:27:06;101863.75;;;18.51;90.54
72157;BME280;60035;52.122;5.406;2022-08-01T03:29:35;101870.63;;;18.52;90.47
72157;BME280;60035;52.122;5.406;2022-08-01T03:32:03;101868.81;;;18.54;90.57
72157;BME280;60035;52.122;5.406;2022-08-01T03:34:30;101869.63;;;18.54;90.57
72157;BME280;60035;52.122;5.406;2022-08-01T03:37:21;101867.19;;;18.51;90.43
72157;BME280;60035;52.122;5.406;2022-08-01T03:39:55;101870.75;;;18.48;90.84
72157;BME280;60035;52.122;5.406;2022-08-01T03:42:29;101876.94;;;18.46;90.81
72157;BME280;60035;52.122;5.406;2022-08-01T03:44:59;101876.06;;;18.45;90.91
72157;BME280;60035;52.122;5.406;2022-08-01T03:47:32;101873.56;;;18.44;90.99
72157;BME280;60035;52.122;5.406;2022-08-01T03:50:08;101870.28;;;18.40;90.97
72157;BME280;60035;52.122;5.406;2022-08-01T03:52:39;101882.31;;;18.41;90.62
72157;BME280;60035;52.122;5.406;2022-08-01T03:55:08;101878.00;;;18.42;90.67
72157;BME280;60035;52.122;5.406;2022-08-01T03:57:36;101880.59;;;18.42;90.61
72157;BME280;60035;52.122;5.406;2022-08-01T04:00:05;101872.88;;;18.40;90.54
72157;BME280;60035;52.122;5.406;2022-08-01T04:02:36;101879.88;;;18.38;90.52
72157;BME280;60035;52.122;5.406;2022-08-01T04:05:03;101880.06;;;18.34;90.51
72157;BME280;60035;52.122;5.406;2022-08-01T04:07:32;101875.03;;;18.30;90.34
72157;BME280;60035;52.122;5.406;2022-08-01T04:10:03;101875.19;;;18.27;90.38
72157;BME280;60035;52.122;5.406;2022-08-01T04:12:30;101875.25;;;18.26;90.34
72157;BME280;60035;52.122;5.406;2022-08-01T04:14:56;101878.75;;;18.25;90.23
72157;BME280;60035;52.122;5.406;2022-08-01T04:17:24;101884.91;;;18.22;90.21
72157;BME280;60035;52.122;5.406;2022-08-01T04:19:51;101883.16;;;18.23;90.30
72157;BME280;60035;52.122;5.406;2022-08-01T04:22:17;101887.50;;;18.22;90.19
72157;BME280;60035;52.122;5.406;2022-08-01T04:24:49;101893.53;;;18.23;90.61
72157;BME280;60035;52.122;5.406;2022-08-01T04:27:25;101898.63;;;18.24;90.55
72157;BME280;60035;52.122;5.406;2022-08-01T04:30:17;101893.44;;;18.24;90.87
72157;BME280;60035;52.122;5.406;2022-08-01T04:32:46;101892.63;;;18.24;91.05
72157;BME280;60035;52.122;5.406;2022-08-01T04:35:15;101897.81;;;18.24;91.20
72157;BME280;60035;52.122;5.406;2022-08-01T04:38:05;101898.63;;;18.24;90.97
72157;BME280;60035;52.122;5.406;2022-08-01T04:40:34;101903.00;;;18.24;91.34
72157;BME280;60035;52.122;5.406;2022-08-01T04:43:02;101903.78;;;18.26;90.92
72157;BME280;60035;52.122;5.406;2022-08-01T04:45:30;101903.78;;;18.26;90.93
72157;BME280;60035;52.122;5.406;2022-08-01T04:47:57;101908.75;;;18.30;91.16
72157;BME280;60035;52.122;5.406;2022-08-01T04:50:24;101907.69;;;18.35;90.79
72157;BME280;60035;52.122;5.406;2022-08-01T04:52:50;101911.19;;;18.34;90.63
72157;BME280;60035;52.122;5.406;2022-08-01T04:55:21;101919.75;;;18.36;90.10
72157;BME280;60035;52.122;5.406;2022-08-01T04:57:47;101920.66;;;18.35;89.37
72157;BME280;60035;52.122;5.406;2022-08-01T05:00:14;101925.91;;;18.33;89.14
72157;BME280;60035;52.122;5.406;2022-08-01T05:02:43;101931.88;;;18.35;89.06
72157;BME280;60035;52.122;5.406;2022-08-01T05:05:09;101933.63;;;18.35;88.69
72157;BME280;60035;52.122;5.406;2022-08-01T05:07:38;101931.88;;;18.35;88.55
72157;BME280;60035;52.122;5.406;2022-08-01T05:10:11;101930.63;;;18.44;88.70
72157;BME280;60035;52.122;5.406;2022-08-01T05:12:38;101936.03;;;18.39;88.28
72157;BME280;60035;52.122;5.406;2022-08-01T05:15:06;101940.56;;;18.34;88.38
72157;BME280;60035;52.122;5.406;2022-08-01T05:17:40;101933.69;;;18.33;88.45
72157;BME280;60035;52.122;5.406;2022-08-01T05:20:09;101939.72;;;18.34;88.30
72157;BME280;60035;52.122;5.406;2022-08-01T05:22:36;101929.28;;;18.35;88.22
72157;BME280;60035;52.122;5.406;2022-08-01T05:25:04;101938.53;;;18.41;88.05
72157;BME280;60035;52.122;5.406;2022-08-01T05:27:34;101941.97;;;18.41;87.99
72157;BME280;60035;52.122;5.406;2022-08-01T05:30:07;101936.78;;;18.41;87.86
72157;BME280;60035;52.122;5.406;2022-08-01T05:32:34;101932.31;;;18.45;88.17
72157;BME280;60035;52.122;5.406;2022-08-01T05:35:02;101936.50;;;18.47;88.26
72157;BME280;60035;52.122;5.406;2022-08-01T05:37:33;101943.50;;;18.45;88.24
72157;BME280;60035;52.122;5.406;2022-08-01T05:40:00;101946.88;;;18.47;88.23
72157;BME280;60035;52.122;5.406;2022-08-01T05:42:27;101947.88;;;18.45;88.31
72157;BME280;60035;52.122;5.406;2022-08-01T05:44:54;101953.06;;;18.45;88.14
72157;BME280;60035;52.122;5.406;2022-08-01T05:47:20;101944.63;;;18.40;88.26
72157;BME280;60035;52.122;5.406;2022-08-01T05:49:47;101955.88;;;18.40;88.39
72157;BME280;60035;52.122;5.406;2022-08-01T05:52:13;101950.53;;;18.43;88.71
72157;BME280;60035;52.122;5.406;2022-08-01T05:54:40;101951.28;;;18.45;88.45
72157;BME280;60035;52.122;5.406;2022-08-01T05:57:07;101953.88;;;18.45;88.51
72157;BME280;60035;52.122;5.406;2022-08-01T05:59:33;101952.84;;;18.50;88.85
72157;BME280;60035;52.122;5.406;2022-08-01T06:02:00;101952.72;;;18.53;88.71
72157;BME280;60035;52.122;5.406;2022-08-01T06:04:26;101962.84;;;18.57;88.65
72157;BME280;60035;52.122;5.406;2022-08-01T06:06:53;101960.25;;;18.57;88.22
72157;BME280;60035;52.122;5.406;2022-08-01T06:09:19;101960.34;;;18.56;88.49
72157;BME280;60035;52.122;5.406;2022-08-01T06:11:46;101966.09;;;18.62;88.50
72157;BME280;60035;52.122;5.406;2022-08-01T06:14:12;101961.63;;;18.66;88.76
72157;BME280;60035;52.122;5.406;2022-08-01T06:16:39;101967.50;;;18.70;88.69
72157;BME280;60035;52.122;5.406;2022-08-01T06:19:05;101962.31;;;18.70;89.00
72157;BME280;60035;52.122;5.406;2022-08-01T06:21:32;101960.47;;;18.72;88.49
72157;BME280;60035;52.122;5.406;2022-08-01T06:23:58;101959.56;;;18.73;88.66
72157;BME280;60035;52.122;5.406;2022-08-01T06:26:25;101959.22;;;18.80;88.93
72157;BME280;60035;52.122;5.406;2022-08-01T06:28:52;101964.19;;;18.85;88.40
72157;BME280;60035;52.122;5.406;2022-08-01T06:31:18;101972.28;;;18.79;88.06
72157;BME280;60035;52.122;5.406;2022-08-01T06:33:44;101960.63;;;18.69;88.02
72157;BME280;60035;52.122;5.406;2022-08-01T06:36:12;101968.50;;;18.67;88.54
72157;BME280;60035;52.122;5.406;2022-08-01T06:38:39;101966.94;;;18.63;88.36
72157;BME280;60035;52.122;5.406;2022-08-01T06:41:05;101971.34;;;18.61;88.03
72157;BME280;60035;52.122;5.406;2022-08-01T06:43:32;101975.91;;;18.56;88.27
72157;BME280;60035;52.122;5.406;2022-08-01T06:45:58;101978.56;;;18.54;88.19
72157;BME280;60035;52.122;5.406;2022-08-01T06:48:25;101981.44;;;18.48;88.48
72157;BME280;60035;52.122;5.406;2022-08-01T06:50:53;101978.19;;;18.43;89.77
72157;BME280;60035;52.122;5.406;2022-08-01T06:53:37;101985.06;;;18.44;90.19
72157;BME280;60035;52.122;5.406;2022-08-01T06:56:06;101987.41;;;18.50;89.98
72157;BME280;60035;52.122;5.406;2022-08-01T06:58:33;101985.38;;;18.57;89.74
72157;BME280;60035;52.122;5.406;2022-08-01T07:01:02;101983.13;;;18.49;89.88
72157;BME280;60035;52.122;5.406;2022-08-01T07:03:30;101987.00;;;18.40;90.14
72157;BME280;60035;52.122;5.406;2022-08-01T07:06:17;101985.16;;;18.42;90.44
72157;BME280;60035;52.122;5.406;2022-08-01T07:08:44;101985.28;;;18.39;90.61
72157;BME280;60035;52.122;5.406;2022-08-01T07:11:10;101985.22;;;18.41;90.79
72157;BME280;60035;52.122;5.406;2022-08-01T07:13:37;101993.72;;;18.44;90.72
72157;BME280;60035;52.122;5.406;2022-08-01T07:16:15;101995.13;;;18.52;90.89
72157;BME280;60035;52.122;5.406;2022-08-01T07:18:42;101994.94;;;18.56;90.34
72157;BME280;60035;52.122;5.406;2022-08-01T07:21:09;101994.56;;;18.64;90.17
72157;BME280;60035;52.122;5.406;2022-08-01T07:23:55;101999.47;;;18.70;90.07
72157;BME280;60035;52.122;5.406;2022-08-01T07:26:22;101997.44;;;18.77;89.79
72157;BME280;60035;52.122;5.406;2022-08-01T07:28:49;101992.97;;;18.80;89.24
72157;BME280;60035;52.122;5.406;2022-08-01T07:31:15;102003.97;;;18.86;88.80
72157;BME280;60035;52.122;5.406;2022-08-01T07:33:42;102008.97;;;18.90;88.52
72157;BME280;60035;52.122;5.406;2022-08-01T07:36:15;102007.31;;;18.89;88.74
72157;BME280;60035;52.122;5.406;2022-08-01T07:38:42;102009.16;;;18.86;89.12
72157;BME280;60035;52.122;5.406;2022-08-01T07:41:08;102014.47;;;18.82;89.28
72157;BME280;60035;52.122;5.406;2022-08-01T07:43:35;102012.94;;;18.78;88.31
72157;BME280;60035;52.122;5.406;2022-08-01T07:46:06;102015.81;;;18.72;87.77
72157;BME280;60035;52.122;5.406;2022-08-01T07:48:33;102022.19;;;18.65;87.98
72157;BME280;60035;52.122;5.406;2022-08-01T07:51:00;102018.13;;;18.59;88.32
72157;BME280;60035;52.122;5.406;2022-08-01T07:53:28;102026.81;;;18.58;88.23
72157;BME280;60035;52.122;5.406;2022-08-01T07:56:03;102025.97;;;18.58;87.83
72157;BME280;60035;52.122;5.406;2022-08-01T07:58:33;102028.50;;;18.59;88.08
72157;BME280;60035;52.122;5.406;2022-08-01T08:00:59;102037.97;;;18.60;88.76
72157;BME280;60035;52.122;5.406;2022-08-01T08:03:26;102038.66;;;18.64;88.37
72157;BME280;60035;52.122;5.406;2022-08-01T08:05:53;102038.53;;;18.67;88.25
72157;BME280;60035;52.122;5.406;2022-08-01T08:08:25;102043.72;;;18.67;87.89
72157;BME280;60035;52.122;5.406;2022-08-01T08:10:52;102040.16;;;18.70;87.62
72157;BME280;60035;52.122;5.406;2022-08-01T08:13:18;102036.50;;;18.74;87.62
72157;BME280;60035;52.122;5.406;2022-08-01T08:15:48;102044.78;;;18.82;86.92
72157;BME280;60035;52.122;5.406;2022-08-01T08:18:15;102047.56;;;18.98;86.71
72157;BME280;60035;52.122;5.406;2022-08-01T08:20:42;102046.22;;;19.08;86.08
72157;BME280;60035;52.122;5.406;2022-08-01T08:23:09;102058.22;;;19.11;85.70
72157;BME280;60035;52.122;5.406;2022-08-01T08:26:12;102053.66;;;19.16;84.99
72157;BME280;60035;52.122;5.406;2022-08-01T08:28:39;102055.13;;;19.22;84.47
72157;BME280;60035;52.122;5.406;2022-08-01T08:31:07;102059.34;;;19.24;83.94
72157;BME280;60035;52.122;5.406;2022-08-01T08:33:54;102057.09;;;19.36;83.86
72157;BME280;60035;52.122;5.406;2022-08-01T08:36:20;102057.72;;;19.41;83.17
72157;BME280;60035;52.122;5.406;2022-08-01T08:38:56;102060.16;;;19.44;83.06
72157;BME280;60035;52.122;5.406;2022-08-01T08:41:23;102062.75;;;19.44;82.66
72157;BME280;60035;52.122;5.406;2022-08-01T08:43:50;102063.50;;;19.46;82.75
72157;BME280;60035;52.122;5.406;2022-08-01T08:46:18;102066.81;;;19.50;82.66
72157;BME280;60035;52.122;5.406;2022-08-01T08:48:54;102067.81;;;19.64;82.89
72157;BME280;60035;52.122;5.406;2022-08-01T08:51:23;102067.31;;;19.75;81.62
72157;BME280;60035;52.122;5.406;2022-08-01T08:53:54;102071.41;;;19.81;81.79
72157;BME280;60035;52.122;5.406;2022-08-01T08:56:30;102072.72;;;19.90;81.18
72157;BME280;60035;52.122;5.406;2022-08-01T08:59:01;102077.31;;;20.02;80.08
72157;BME280;60035;52.122;5.406;2022-08-01T09:01:28;102065.16;;;20.20;80.71
72157;BME280;60035;52.122;5.406;2022-08-01T09:03:59;102071.94;;;20.40;79.85
72157;BME280;60035;52.122;5.406;2022-08-01T09:06:26;102074.56;;;20.56;78.94
72157;BME280;60035;52.122;5.406;2022-08-01T09:08:52;102076.59;;;20.67;77.61
72157;BME280;60035;52.122;5.406;2022-08-01T09:11:20;102082.13;;;20.61;76.67
72157;BME280;60035;52.122;5.406;2022-08-01T09:14:03;102086.50;;;20.60;75.85
72157;BME280;60035;52.122;5.406;2022-08-01T09:16:31;102084.41;;;20.67;76.40
72157;BME280;60035;52.122;5.406;2022-08-01T09:19:27;102090.59;;;20.82;76.61
72157;BME280;60035;52.122;5.406;2022-08-01T09:22:08;102088.44;;;20.90;75.14
72157;BME280;60035;52.122;5.406;2022-08-01T09:24:36;102092.63;;;20.93;72.49
72157;BME280;60035;52.122;5.406;2022-08-01T09:27:21;102094.41;;;20.92;71.68
72157;BME280;60035;52.122;5.406;2022-08-01T09:29:52;102097.59;;;20.97;72.04
72157;BME280;60035;52.122;5.406;2022-08-01T09:32:29;102099.03;;;21.19;70.15
72157;BME280;60035;52.122;5.406;2022-08-01T09:35:24;102096.28;;;21.38;71.62
72157;BME280;60035;52.122;5.406;2022-08-01T09:38:16;102097.53;;;21.63;69.61
72157;BME280;60035;52.122;5.406;2022-08-01T09:40:53;102103.91;;;21.73;68.75
72157;BME280;60035;52.122;5.406;2022-08-01T09:43:22;102101.13;;;21.76;68.34
72157;BME280;60035;52.122;5.406;2022-08-01T09:45:50;102104.81;;;21.72;68.12
72157;BME280;60035;52.122;5.406;2022-08-01T09:48:19;102106.91;;;21.82;67.69
72157;BME280;60035;52.122;5.406;2022-08-01T09:50:50;102101.25;;;21.89;67.86
72157;BME280;60035;52.122;5.406;2022-08-01T09:53:18;102112.00;;;21.99;67.42
72157;BME280;60035;52.122;5.406;2022-08-01T09:56:08;102106.16;;;22.10;65.82
72157;BME280;60035;52.122;5.406;2022-08-01T09:58:56;102112.69;;;22.17;66.02
72157;BME280;60035;52.122;5.406;2022-08-01T10:01:28;102108.19;;;22.35;64.40
72157;BME280;60035;52.122;5.406;2022-08-01T10:06:36;102109.16;;;22.63;63.71
72157;BME280;60035;52.122;5.406;2022-08-01T10:09:03;102109.91;;;22.79;61.93
72157;BME280;60035;52.122;5.406;2022-08-01T10:11:31;102111.47;;;22.82;61.89
72157;BME280;60035;52.122;5.406;2022-08-01T10:14:02;102113.59;;;23.04;60.07
72157;BME280;60035;52.122;5.406;2022-08-01T10:16:30;102105.63;;;23.35;59.22
72157;BME280;60035;52.122;5.406;2022-08-01T10:18:58;102106.47;;;23.62;57.58
72157;BME280;60035;52.122;5.406;2022-08-01T10:21:27;102103.56;;;23.67;55.88
72157;BME280;60035;52.122;5.406;2022-08-01T10:24:13;102108.41;;;23.86;55.25
72157;BME280;60035;52.122;5.406;2022-08-01T10:26:47;102113.94;;;24.22;54.98
72157;BME280;60035;52.122;5.406;2022-08-01T10:29:16;102109.38;;;24.38;54.61
72157;BME280;60035;52.122;5.406;2022-08-01T10:32:05;102113.97;;;24.35;54.08
72157;BME280;60035;52.122;5.406;2022-08-01T10:34:33;102107.25;;;24.43;52.17
72157;BME280;60035;52.122;5.406;2022-08-01T10:37:01;102111.53;;;24.44;52.41
72157;BME280;60035;52.122;5.406;2022-08-01T10:39:31;102107.06;;;24.47;51.04
72157;BME280;60035;52.122;5.406;2022-08-01T10:41:59;102108.94;;;24.57;52.23
72157;BME280;60035;52.122;5.406;2022-08-01T10:44:29;102102.56;;;24.74;51.51
72157;BME280;60035;52.122;5.406;2022-08-01T10:47:08;102107.44;;;24.92;50.94
72157;BME280;60035;52.122;5.406;2022-08-01T10:49:41;102102.06;;;25.06;52.35
72157;BME280;60035;52.122;5.406;2022-08-01T10:52:18;102101.78;;;25.35;51.56
72157;BME280;60035;52.122;5.406;2022-08-01T10:54:47;102100.25;;;25.44;49.90
72157;BME280;60035;52.122;5.406;2022-08-01T10:57:18;102103.63;;;25.33;48.06
72157;BME280;60035;52.122;5.406;2022-08-01T10:59:49;102101.78;;;25.35;51.92
72157;BME280;60035;52.122;5.406;2022-08-01T11:02:31;102100.88;;;25.48;50.13
72157;BME280;60035;52.122;5.406;2022-08-01T11:05:12;102104.63;;;25.56;49.76
72157;BME280;60035;52.122;5.406;2022-08-01T11:07:52;102108.59;;;25.25;51.11
72157;BME280;60035;52.122;5.406;2022-08-01T11:10:25;102108.56;;;25.01;50.81
72157;BME280;60035;52.122;5.406;2022-08-01T11:12:54;102103.59;;;24.85;52.25
72157;BME280;60035;52.122;5.406;2022-08-01T11:15:23;102106.22;;;24.72;52.28
72157;BME280;60035;52.122;5.406;2022-08-01T11:17:56;102109.47;;;24.63;52.92
72157;BME280;60035;52.122;5.406;2022-08-01T11:20:27;102110.38;;;24.61;52.70
72157;BME280;60035;52.122;5.406;2022-08-01T11:28:27;102121.91;;;24.46;52.68
72157;BME280;60035;52.122;5.406;2022-08-01T11:38:45;102122.97;;;24.56;51.78
72157;BME280;60035;52.122;5.406;2022-08-01T11:41:24;102123.16;;;24.92;51.87
72157;BME280;60035;52.122;5.406;2022-08-01T11:47:04;102129.94;;;25.07;49.25
72157;BME280;60035;52.122;5.406;2022-08-01T11:54:56;102120.69;;;25.52;46.67
72157;BME280;60035;52.122;5.406;2022-08-01T11:57:31;102120.81;;;25.86;46.79
72157;BME280;60035;52.122;5.406;2022-08-01T12:00:13;102122.75;;;25.95;46.57
72157;BME280;60035;52.122;5.406;2022-08-01T12:02:44;102125.09;;;26.11;44.52
72157;BME280;60035;52.122;5.406;2022-08-01T12:05:13;102125.72;;;26.15;43.70
72157;BME280;60035;52.122;5.406;2022-08-01T12:07:42;102129.66;;;26.20;42.64
72157;BME280;60035;52.122;5.406;2022-08-01T12:10:11;102131.22;;;26.34;44.66
72157;BME280;60035;52.122;5.406;2022-08-01T12:12:54;102129.97;;;26.74;41.71
72157;BME280;60035;52.122;5.406;2022-08-01T12:15:23;102133.44;;;26.86;40.69
72157;BME280;60035;52.122;5.406;2022-08-01T12:17:55;102130.28;;;26.69;41.04
72157;BME280;60035;52.122;5.406;2022-08-01T12:20:27;102131.59;;;26.41;41.89
72157;BME280;60035;52.122;5.406;2022-08-01T12:23:04;102126.06;;;26.33;42.56
72157;BME280;60035;52.122;5.406;2022-08-01T12:25:32;102135.16;;;26.51;41.46
72157;BME280;60035;52.122;5.406;2022-08-01T12:28:04;102137.22;;;26.70;40.02
72157;BME280;60035;52.122;5.406;2022-08-01T12:30:32;102123.97;;;26.94;39.90
72157;BME280;60035;52.122;5.406;2022-08-01T12:33:03;102123.09;;;27.17;38.22
72157;BME280;60035;52.122;5.406;2022-08-01T12:35:32;102126.47;;;27.51;38.02
72157;BME280;60035;52.122;5.406;2022-08-01T12:38:08;102129.25;;;27.50;38.23
72157;BME280;60035;52.122;5.406;2022-08-01T12:40:44;102126.06;;;27.67;37.15
72157;BME280;60035;52.122;5.406;2022-08-01T12:43:16;102125.78;;;27.70;37.12
72157;BME280;60035;52.122;5.406;2022-08-01T12:45:55;102129.41;;;27.69;38.40
72157;BME280;60035;52.122;5.406;2022-08-01T12:48:26;102129.09;;;27.84;38.96
72157;BME280;60035;52.122;5.406;2022-08-01T12:50:53;102124.09;;;28.23;36.41
72157;BME280;60035;52.122;5.406;2022-08-01T12:53:23;102126.94;;;28.10;35.96
72157;BME280;60035;52.122;5.406;2022-08-01T12:55:54;102125.16;;;27.99;38.71
72157;BME280;60035;52.122;5.406;2022-08-01T12:58:31;102125.94;;;27.90;37.02
72157;BME280;60035;52.122;5.406;2022-08-01T13:01:08;102126.63;;;27.50;36.01
72157;BME280;60035;52.122;5.406;2022-08-01T13:03:36;102121.66;;;27.68;32.80
72157;BME280;60035;52.122;5.406;2022-08-01T13:06:13;102116.47;;;27.66;34.39
72157;BME280;60035;52.122;5.406;2022-08-01T13:08:41;102118.03;;;27.90;34.25
72157;BME280;60035;52.122;5.406;2022-08-01T13:11:12;102118.47;;;28.06;35.76
72157;BME280;60035;52.122;5.406;2022-08-01T13:13:48;102118.66;;;28.46;36.26
72157;BME280;60035;52.122;5.406;2022-08-01T13:16:18;102124.75;;;28.67;33.58
72157;BME280;60035;52.122;5.406;2022-08-01T13:19:05;102119.97;;;28.61;32.22
72157;BME280;60035;52.122;5.406;2022-08-01T13:21:32;102125.66;;;28.56;32.36
72157;BME280;60035;52.122;5.406;2022-08-01T13:24:26;102119.34;;;28.69;33.20
72157;BME280;60035;52.122;5.406;2022-08-01T13:26:58;102121.47;;;28.85;32.02
72157;BME280;60035;52.122;5.406;2022-08-01T13:29:34;102117.88;;;28.96;34.00
72157;BME280;60035;52.122;5.406;2022-08-01T13:32:17;102113.09;;;29.30;32.72
72157;BME280;60035;52.122;5.406;2022-08-01T13:35:09;102113.53;;;29.55;32.60
72157;BME280;60035;52.122;5.406;2022-08-01T13:37:40;102124.16;;;29.14;33.37
72157;BME280;60035;52.122;5.406;2022-08-01T13:40:08;102112.41;;;29.28;33.25
72157;BME280;60035;52.122;5.406;2022-08-01T13:42:35;102114.34;;;29.26;33.86
72157;BME280;60035;52.122;5.406;2022-08-01T13:45:06;102103.25;;;29.62;32.87